Date,TemperatureHighF,TemperatureAvgF,TemperatureLowF,DewpointHighF,DewpointAvgF,DewpointLowF,HumidityHigh,HumidityAvg,HumidityLow,PressureMaxIn,PressureMinIn,WindSpeedMaxMPH,WindSpeedAvgMPH,GustSpeedMaxMPH,PrecipitationSumIn
2013-1-1,60.2,49.6,40.1,44.0,37.5,32.8,82,64,41,30.30,30.15,6,1,11,0.00
2013-1-2,64.2,50.7,40.8,47.3,33.6,23.2,74,54,22,30.19,30.11,9,3,15,0.00
2013-1-3,65.7,51.7,41.7,48.1,34.3,29.8,66,53,31,30.23,30.12,10,3,13,0.00
2013-1-4,65.7,50.6,40.6,36.6,31.3,26.8,64,50,23,30.32,30.22,10,3,13,0.00
2013-1-5,61.4,50.3,40.1,50.0,38.6,29.7,83,65,36,30.36,30.23,9,2,13,0.01
2013-1-6,55.8,49.8,44.1,49.6,45.7,41.6,93,86,73,30.26,30.08,8,2,14,0.01
2013-1-7,61.7,51.0,41.6,47.9,40.7,33.9,92,70,36,30.19,30.06,9,2,13,0.00
2013-1-8,70.6,54.0,45.1,55.8,43.7,34.3,89,69,31,30.16,30.09,9,2,17,0.00
2013-1-9,60.2,52.8,47.3,55.4,48.0,41.2,93,84,63,30.17,30.06,4,1,10,0.00
2013-1-10,58.6,51.5,43.0,49.5,39.3,25.9,93,66,29,30.18,29.98,12,3,19,0.00
2013-1-11,57.4,46.7,37.3,36.9,28.6,21.7,69,51,26,30.26,30.13,6,1,13,0.00
2013-1-12,57.6,45.4,37.2,33.9,29.8,22.1,73,56,26,30.23,30.14,7,2,12,0.00
2013-1-13,55.3,45.7,34.9,38.4,30.8,15.6,72,57,27,30.25,30.10,6,2,10,0.00
2013-1-14,56.4,45.0,34.5,34.3,20.5,10.6,60,39,17,30.42,30.20,5,1,10,0.00
2013-1-15,58.7,46.4,34.5,43.8,30.7,23.0,66,55,32,30.51,30.40,9,3,13,0.00
2013-1-16,67.6,52.1,40.4,39.3,32.3,28.1,68,50,23,30.42,30.21,9,4,13,0.00
2013-1-17,71.5,56.0,45.3,45.5,34.3,27.8,60,45,27,30.23,30.11,12,4,18,0.00
2013-1-18,75.8,59.9,48.6,46.6,29.4,24.1,49,32,17,30.20,30.10,9,2,13,0.00
2013-1-19,82.4,60.4,49.7,34.3,25.2,15.0,36,28,8,30.22,30.12,6,2,12,0.00
2013-1-20,75.8,59.3,45.4,29.0,23.8,19.1,42,27,13,30.19,30.06,10,3,15,0.00
2013-1-21,83.0,60.8,48.6,38.4,25.9,12.4,42,27,9,30.16,30.03,9,2,14,0.00
2013-1-22,82.8,61.0,47.2,44.5,26.4,15.0,44,28,8,30.13,30.06,6,2,14,0.00
2013-1-23,74.2,63.1,55.6,50.3,37.3,23.8,82,42,22,30.15,30.03,7,2,13,0.02
2013-1-24,65.3,59.9,55.8,59.4,56.0,50.3,95,87,76,30.22,30.13,3,1,9,0.48
2013-1-25,64.4,60.8,59.2,60.0,57.6,56.0,94,89,82,30.17,30.02,5,1,9,0.13
2013-1-26,63.1,58.0,56.5,59.7,56.3,54.4,99,94,86,30.03,29.93,4,1,11,0.07
2013-1-27,63.5,56.4,48.6,54.8,44.9,29.9,95,69,32,30.09,29.97,12,2,18,0.00
2013-1-28,62.5,54.8,47.7,42.4,33.7,27.1,58,45,31,30.21,30.09,8,3,22,0.00
2013-1-29,59.5,49.3,42.2,49.4,39.3,33.7,83,69,48,30.28,30.19,5,2,13,0.00
2013-1-30,62.8,51.8,42.2,48.1,42.2,38.0,86,71,46,30.39,30.27,8,2,12,0.00
2013-1-31,71.6,56.3,45.7,51.4,44.8,40.1,81,67,42,30.30,30.15,8,2,14,0.00